sensor_id;sensor_type;location;lat;lon;timestamp;P1;durP1;ratioP1;P2;durP2;ratioP2
40501;SDS011;29631;49.168;9.848;2023-02-15T00:01:57;8.05;;;7.35;;
40501;SDS011;29631;49.168;9.848;2023-02-15T00:04:24;8.80;;;8.00;;
40501;SDS011;29631;49.168;9.848;2023-02-15T00:07:11;8.50;;;7.70;;
40501;SDS011;29631;49.168;9.848;2023-02-15T00:09:41;9.27;;;8.40;;
40501;SDS011;29631;49.168;9.848;2023-02-15T00:12:08;8.88;;;8.05;;
40501;SDS011;29631;49.168;9.848;2023-02-15T00:14:34;9.27;;;8.40;;
40501;SDS011;29631;49.168;9.848;2023-02-15T00:17:00;9.93;;;8.95;;
40501;SDS011;29631;49.168;9.848;2023-02-15T00:19:26;9.50;;;8.60;;
40501;SDS011;29631;49.168;9.848;2023-02-15T00:21:52;8.35;;;7.72;;
40501;SDS011;29631;49.168;9.848;2023-02-15T00:24:18;8.48;;;7.78;;
40501;SDS011;29631;49.168;9.848;2023-02-15T00:26:45;8.05;;;7.35;;
40501;SDS011;29631;49.168;9.848;2023-02-15T00:29:12;8.02;;;7.32;;
40501;SDS011;29631;49.168;9.848;2023-02-15T00:31:39;8.38;;;7.68;;
40501;SDS011;29631;49.168;9.848;2023-02-15T00:36:35;7.68;;;7.03;;
40501;SDS011;29631;49.168;9.848;2023-02-15T00:39:01;15.35;;;7.68;;
40501;SDS011;29631;49.168;9.848;2023-02-15T00:41:28;8.10;;;7.38;;
40501;SDS011;29631;49.168;9.848;2023-02-15T00:43:53;7.95;;;7.30;;
40501;SDS011;29631;49.168;9.848;2023-02-15T00:46:19;7.82;;;7.13;;
40501;SDS011;29631;49.168;9.848;2023-02-15T00:48:45;7.95;;;7.25;;
40501;SDS011;29631;49.168;9.848;2023-02-15T00:51:10;8.00;;;7.30;;
40501;SDS011;29631;49.168;9.848;2023-02-15T00:53:36;7.88;;;7.20;;
40501;SDS011;29631;49.168;9.848;2023-02-15T00:56:02;7.72;;;7.03;;
40501;SDS011;29631;49.168;9.848;2023-02-15T00:58:28;7.75;;;7.05;;
40501;SDS011;29631;49.168;9.848;2023-02-15T01:00:53;8.25;;;7.55;;
40501;SDS011;29631;49.168;9.848;2023-02-15T01:03:19;7.38;;;6.78;;
40501;SDS011;29631;49.168;9.848;2023-02-15T01:05:46;7.72;;;7.13;;
40501;SDS011;29631;49.168;9.848;2023-02-15T01:08:13;8.02;;;7.32;;
40501;SDS011;29631;49.168;9.848;2023-02-15T01:10:40;7.90;;;7.10;;
40501;SDS011;29631;49.168;9.848;2023-02-15T01:13:05;8.35;;;7.55;;
40501;SDS011;29631;49.168;9.848;2023-02-15T01:15:33;8.52;;;7.82;;
40501;SDS011;29631;49.168;9.848;2023-02-15T01:18:00;7.93;;;7.22;;
40501;SDS011;29631;49.168;9.848;2023-02-15T01:20:26;8.73;;;8.02;;
40501;SDS011;29631;49.168;9.848;2023-02-15T01:22:54;7.45;;;6.85;;
40501;SDS011;29631;49.168;9.848;2023-02-15T01:25:22;8.35;;;7.65;;
40501;SDS011;29631;49.168;9.848;2023-02-15T01:27:49;8.25;;;7.47;;
40501;SDS011;29631;49.168;9.848;2023-02-15T01:30:15;7.95;;;7.25;;
40501;SDS011;29631;49.168;9.848;2023-02-15T01:32:41;8.50;;;7.78;;
40501;SDS011;29631;49.168;9.848;2023-02-15T01:35:08;8.60;;;7.82;;
40501;SDS011;29631;49.168;9.848;2023-02-15T01:37:35;8.25;;;7.55;;
40501;SDS011;29631;49.168;9.848;2023-02-15T01:40:02;8.50;;;7.72;;
40501;SDS011;29631;49.168;9.848;2023-02-15T01:42:32;8.02;;;7.32;;
40501;SDS011;29631;49.168;9.848;2023-02-15T01:44:58;8.77;;;8.00;;
40501;SDS011;29631;49.168;9.848;2023-02-15T01:50:16;8.43;;;7.65;;
40501;SDS011;29631;49.168;9.848;2023-02-15T01:53:03;8.13;;;7.43;;
40501;SDS011;29631;49.168;9.848;2023-02-15T01:55:47;9.15;;;8.35;;
40501;SDS011;29631;49.168;9.848;2023-02-15T01:58:33;8.05;;;7.35;;
40501;SDS011;29631;49.168;9.848;2023-02-15T02:01:01;8.18;;;7.47;;
40501;SDS011;29631;49.168;9.848;2023-02-15T02:06:39;8.23;;;7.53;;
40501;SDS011;29631;49.168;9.848;2023-02-15T02:09:06;8.05;;;7.35;;
40501;SDS011;29631;49.168;9.848;2023-02-15T02:11:32;8.10;;;7.43;;
40501;SDS011;29631;49.168;9.848;2023-02-15T02:13:59;8.23;;;7.53;;
40501;SDS011;29631;49.168;9.848;2023-02-15T02:16:27;8.25;;;7.45;;
40501;SDS011;29631;49.168;9.848;2023-02-15T02:36:52;8.18;;;7.53;;
40501;SDS011;29631;49.168;9.848;2023-02-15T02:39:33;7.78;;;7.10;;
40501;SDS011;29631;49.168;9.848;2023-02-15T02:46:00;7.47;;;6.88;;
40501;SDS011;29631;49.168;9.848;2023-02-15T02:48:14;7.32;;;6.63;;
40501;SDS011;29631;49.168;9.848;2023-02-15T02:50:46;7.50;;;6.90;;
40501;SDS011;29631;49.168;9.848;2023-02-15T02:53:11;7.25;;;6.65;;
40501;SDS011;29631;49.168;9.848;2023-02-15T02:55:39;7.97;;;7.28;;
40501;SDS011;29631;49.168;9.848;2023-02-15T03:01:18;7.85;;;7.25;;
40501;SDS011;29631;49.168;9.848;2023-02-15T03:04:17;7.55;;;6.95;;
40501;SDS011;29631;49.168;9.848;2023-02-15T03:09:27;7.53;;;6.82;;
40501;SDS011;29631;49.168;9.848;2023-02-15T03:12:06;6.68;;;6.07;;
40501;SDS011;29631;49.168;9.848;2023-02-15T03:14:42;7.03;;;6.43;;
40501;SDS011;29631;49.168;9.848;2023-02-15T03:17:12;6.35;;;5.85;;
40501;SDS011;29631;49.168;9.848;2023-02-15T03:19:39;7.63;;;7.03;;
40501;SDS011;29631;49.168;9.848;2023-02-15T03:22:17;7.00;;;6.50;;
40501;SDS011;29631;49.168;9.848;2023-02-15T03:24:58;7.05;;;6.45;;
40501;SDS011;29631;49.168;9.848;2023-02-15T03:27:45;6.72;;;6.22;;
40501;SDS011;29631;49.168;9.848;2023-02-15T03:30:17;7.38;;;6.68;;
40501;SDS011;29631;49.168;9.848;2023-02-15T03:32:46;8.05;;;7.35;;
40501;SDS011;29631;49.168;9.848;2023-02-15T03:35:14;8.48;;;6.55;;
40501;SDS011;29631;49.168;9.848;2023-02-15T03:37:41;9.13;;;6.80;;
40501;SDS011;29631;49.168;9.848;2023-02-15T03:40:16;7.22;;;6.55;;
40501;SDS011;29631;49.168;9.848;2023-02-15T03:44:04;7.30;;;6.70;;
40501;SDS011;29631;49.168;9.848;2023-02-15T03:46:55;6.78;;;6.18;;
40501;SDS011;29631;49.168;9.848;2023-02-15T03:49:42;6.43;;;5.93;;
40501;SDS011;29631;49.168;9.848;2023-02-15T03:52:52;6.75;;;6.15;;
40501;SDS011;29631;49.168;9.848;2023-02-15T03:55:20;7.18;;;6.57;;
40501;SDS011;29631;49.168;9.848;2023-02-15T03:57:46;6.90;;;6.30;;
40501;SDS011;29631;49.168;9.848;2023-02-15T04:00:31;6.30;;;5.80;;
40501;SDS011;29631;49.168;9.848;2023-02-15T04:06:08;6.45;;;5.95;;
40501;SDS011;29631;49.168;9.848;2023-02-15T04:08:33;7.22;;;6.57;;
40501;SDS011;29631;49.168;9.848;2023-02-15T04:11:17;7.78;;;6.22;;
40501;SDS011;29631;49.168;9.848;2023-02-15T04:13:43;6.22;;;5.72;;
40501;SDS011;29631;49.168;9.848;2023-02-15T04:16:09;6.05;;;5.65;;
40501;SDS011;29631;49.168;9.848;2023-02-15T04:21:25;6.85;;;5.32;;
40501;SDS011;29631;49.168;9.848;2023-02-15T04:24:12;7.70;;;6.07;;
40501;SDS011;29631;49.168;9.848;2023-02-15T04:26:57;6.43;;;5.82;;
40501;SDS011;29631;49.168;9.848;2023-02-15T04:29:24;6.25;;;5.85;;
40501;SDS011;29631;49.168;9.848;2023-02-15T04:31:52;6.68;;;6.18;;
40501;SDS011;29631;49.168;9.848;2023-02-15T04:34:19;6.25;;;5.75;;
40501;SDS011;29631;49.168;9.848;2023-02-15T04:36:45;6.32;;;5.82;;
40501;SDS011;29631;49.168;9.848;2023-02-15T04:39:14;6.40;;;5.90;;
40501;SDS011;29631;49.168;9.848;2023-02-15T04:41:41;7.78;;;6.43;;
40501;SDS011;29631;49.168;9.848;2023-02-15T04:44:07;7.05;;;6.45;;
40501;SDS011;29631;49.168;9.848;2023-02-15T04:46:33;6.55;;;6.00;;
40501;SDS011;29631;49.168;9.848;2023-02-15T04:48:59;6.63;;;6.10;;
40501;SDS011;29631;49.168;9.848;2023-02-15T04:51:25;6.93;;;6.32;;
40501;SDS011;29631;49.168;9.848;2023-02-15T04:53:50;6.82;;;6.28;;
40501;SDS011;29631;49.168;9.848;2023-02-15T04:56:17;7.72;;;7.05;;
40501;SDS011;29631;49.168;9.848;2023-02-15T04:58:44;6.80;;;6.30;;
40501;SDS011;29631;49.168;9.848;2023-02-15T05:01:10;6.97;;;6.47;;
40501;SDS011;29631;49.168;9.848;2023-02-15T05:03:36;7.07;;;6.38;;
40501;SDS011;29631;49.168;9.848;2023-02-15T05:06:02;7.03;;;6.43;;
40501;SDS011;29631;49.168;9.848;2023-02-15T05:08:29;11.48;;;6.40;;
40501;SDS011;29631;49.168;9.848;2023-02-15T05:10:56;7.30;;;6.70;;
40501;SDS011;29631;49.168;9.848;2023-02-15T05:13:22;7.03;;;6.53;;
40501;SDS011;29631;49.168;9.848;2023-02-15T05:15:49;7.05;;;6.55;;
40501;SDS011;29631;49.168;9.848;2023-02-15T05:18:16;7.28;;;6.68;;
40501;SDS011;29631;49.168;9.848;2023-02-15T05:20:43;7.10;;;6.50;;
40501;SDS011;29631;49.168;9.848;2023-02-15T05:23:10;6.90;;;6.28;;
40501;SDS011;29631;49.168;9.848;2023-02-15T05:25:35;8.73;;;6.63;;
40501;SDS011;29631;49.168;9.848;2023-02-15T05:28:20;11.80;;;6.53;;
40501;SDS011;29631;49.168;9.848;2023-02-15T05:33:38;7.00;;;6.45;;
40501;SDS011;29631;49.168;9.848;2023-02-15T05:36:05;6.60;;;6.00;;
40501;SDS011;29631;49.168;9.848;2023-02-15T05:38:32;7.88;;;7.18;;
40501;SDS011;29631;49.168;9.848;2023-02-15T05:40:58;7.13;;;6.63;;
40501;SDS011;29631;49.168;9.848;2023-02-15T05:43:24;6.95;;;6.45;;
40501;SDS011;29631;49.168;9.848;2023-02-15T05:45:51;7.28;;;6.57;;
40501;SDS011;29631;49.168;9.848;2023-02-15T05:48:20;6.93;;;6.22;;
40501;SDS011;29631;49.168;9.848;2023-02-15T05:51:08;6.70;;;6.20;;
40501;SDS011;29631;49.168;9.848;2023-02-15T05:53:41;6.43;;;5.93;;
40501;SDS011;29631;49.168;9.848;2023-02-15T05:56:07;6.30;;;5.70;;
40501;SDS011;29631;49.168;9.848;2023-02-15T05:58:38;6.63;;;6.13;;
40501;SDS011;29631;49.168;9.848;2023-02-15T06:01:13;7.13;;;6.53;;
40501;SDS011;29631;49.168;9.848;2023-02-15T06:03:47;6.45;;;5.95;;
40501;SDS011;29631;49.168;9.848;2023-02-15T06:06:13;6.88;;;6.38;;
40501;SDS011;29631;49.168;9.848;2023-02-15T06:08:40;7.65;;;6.82;;
40501;SDS011;29631;49.168;9.848;2023-02-15T06:11:06;6.90;;;6.40;;
40501;SDS011;29631;49.168;9.848;2023-02-15T06:13:33;6.72;;;6.22;;
40501;SDS011;29631;49.168;9.848;2023-02-15T06:15:59;6.80;;;6.25;;
40501;SDS011;29631;49.168;9.848;2023-02-15T06:18:25;6.53;;;6.03;;
40501;SDS011;29631;49.168;9.848;2023-02-15T06:20:51;6.50;;;6.00;;
40501;SDS011;29631;49.168;9.848;2023-02-15T06:23:18;6.90;;;6.10;;
40501;SDS011;29631;49.168;9.848;2023-02-15T06:25:44;6.43;;;5.82;;
40501;SDS011;29631;49.168;9.848;2023-02-15T06:28:11;6.72;;;6.13;;
40501;SDS011;29631;49.168;9.848;2023-02-15T06:30:37;7.15;;;6.65;;
40501;SDS011;29631;49.168;9.848;2023-02-15T06:33:02;7.50;;;6.90;;
40501;SDS011;29631;49.168;9.848;2023-02-15T06:35:28;6.85;;;6.35;;
40501;SDS011;29631;49.168;9.848;2023-02-15T06:37:54;6.82;;;6.32;;
40501;SDS011;29631;49.168;9.848;2023-02-15T06:40:19;7.40;;;6.80;;
40501;SDS011;29631;49.168;9.848;2023-02-15T06:42:45;6.55;;;6.00;;
40501;SDS011;29631;49.168;9.848;2023-02-15T06:45:11;6.75;;;6.25;;
40501;SDS011;29631;49.168;9.848;2023-02-15T06:47:37;6.53;;;6.03;;
40501;SDS011;29631;49.168;9.848;2023-02-15T06:50:03;7.32;;;6.72;;
40501;SDS011;29631;49.168;9.848;2023-02-15T06:52:30;7.18;;;6.50;;
40501;SDS011;29631;49.168;9.848;2023-02-15T06:54:56;7.32;;;6.68;;
40501;SDS011;29631;49.168;9.848;2023-02-15T06:57:21;7.35;;;6.75;;
40501;SDS011;29631;49.168;9.848;2023-02-15T06:59:47;7.00;;;6.50;;
40501;SDS011;29631;49.168;9.848;2023-02-15T07:02:13;7.15;;;6.57;;
40501;SDS011;29631;49.168;9.848;2023-02-15T07:04:39;6.88;;;6.35;;
40501;SDS011;29631;49.168;9.848;2023-02-15T07:07:07;6.68;;;6.10;;
40501;SDS011;29631;49.168;9.848;2023-02-15T07:09:35;7.50;;;6.90;;
40501;SDS011;29631;49.168;9.848;2023-02-15T07:12:01;6.90;;;6.30;;
40501;SDS011;29631;49.168;9.848;2023-02-15T07:14:46;6.72;;;6.22;;
40501;SDS011;29631;49.168;9.848;2023-02-15T07:17:12;7.35;;;6.75;;
40501;SDS011;29631;49.168;9.848;2023-02-15T07:19:37;7.03;;;6.53;;
40501;SDS011;29631;49.168;9.848;2023-02-15T07:22:03;7.18;;;6.57;;
40501;SDS011;29631;49.168;9.848;2023-02-15T07:24:29;6.75;;;6.03;;
40501;SDS011;29631;49.168;9.848;2023-02-15T07:26:55;7.47;;;6.70;;
40501;SDS011;29631;49.168;9.848;2023-02-15T07:29:22;8.07;;;7.38;;
40501;SDS011;29631;49.168;9.848;2023-02-15T07:31:48;7.47;;;6.88;;
40501;SDS011;29631;49.168;9.848;2023-02-15T07:34:14;7.10;;;6.55;;
40501;SDS011;29631;49.168;9.848;2023-02-15T07:36:40;7.07;;;6.57;;
40501;SDS011;29631;49.168;9.848;2023-02-15T07:39:08;7.85;;;7.20;;
40501;SDS011;29631;49.168;9.848;2023-02-15T07:41:35;7.57;;;6.97;;
40501;SDS011;29631;49.168;9.848;2023-02-15T07:44:00;8.02;;;7.35;;
40501;SDS011;29631;49.168;9.848;2023-02-15T07:46:26;7.90;;;7.20;;
40501;SDS011;29631;49.168;9.848;2023-02-15T07:48:52;8.05;;;7.35;;
40501;SDS011;29631;49.168;9.848;2023-02-15T07:51:18;7.30;;;6.70;;
40501;SDS011;29631;49.168;9.848;2023-02-15T07:53:45;8.02;;;7.32;;
40501;SDS011;29631;49.168;9.848;2023-02-15T07:56:12;7.22;;;6.63;;
40501;SDS011;29631;49.168;9.848;2023-02-15T07:58:39;7.28;;;6.68;;
40501;SDS011;29631;49.168;9.848;2023-02-15T08:04:12;7.03;;;6.43;;
40501;SDS011;29631;49.168;9.848;2023-02-15T08:06:38;7.82;;;7.13;;
40501;SDS011;29631;49.168;9.848;2023-02-15T08:09:04;7.88;;;7.18;;
40501;SDS011;29631;49.168;9.848;2023-02-15T08:11:33;7.72;;;7.13;;
40501;SDS011;29631;49.168;9.848;2023-02-15T08:14:06;7.78;;;7.13;;
40501;SDS011;29631;49.168;9.848;2023-02-15T08:16:40;7.85;;;7.15;;
40501;SDS011;29631;49.168;9.848;2023-02-15T08:21:55;7.75;;;7.15;;
40501;SDS011;29631;49.168;9.848;2023-02-15T08:24:25;7.43;;;6.82;;
40501;SDS011;29631;49.168;9.848;2023-02-15T08:26:53;8.18;;;7.47;;
40501;SDS011;29631;49.168;9.848;2023-02-15T08:29:20;7.50;;;6.80;;
40501;SDS011;29631;49.168;9.848;2023-02-15T08:31:49;8.23;;;7.53;;
40501;SDS011;29631;49.168;9.848;2023-02-15T08:34:19;7.80;;;7.20;;
40501;SDS011;29631;49.168;9.848;2023-02-15T08:36:46;7.63;;;7.00;;
40501;SDS011;29631;49.168;9.848;2023-02-15T08:39:12;8.07;;;7.38;;
40501;SDS011;29631;49.168;9.848;2023-02-15T08:41:41;8.35;;;7.65;;
40501;SDS011;29631;49.168;9.848;2023-02-15T08:44:09;8.55;;;7.85;;
40501;SDS011;29631;49.168;9.848;2023-02-15T08:46:36;8.68;;;7.88;;
40501;SDS011;29631;49.168;9.848;2023-02-15T08:49:05;8.60;;;7.90;;
40501;SDS011;29631;49.168;9.848;2023-02-15T08:51:32;7.53;;;6.93;;
40501;SDS011;29631;49.168;9.848;2023-02-15T08:54:02;8.05;;;7.43;;
40501;SDS011;29631;49.168;9.848;2023-02-15T08:56:34;7.80;;;7.20;;
40501;SDS011;29631;49.168;9.848;2023-02-15T08:59:03;8.25;;;7.45;;
40501;SDS011;29631;49.168;9.848;2023-02-15T09:01:31;8.20;;;7.50;;
40501;SDS011;29631;49.168;9.848;2023-02-15T09:03:59;8.65;;;7.95;;
40501;SDS011;29631;49.168;9.848;2023-02-15T09:06:29;8.65;;;7.90;;
40501;SDS011;29631;49.168;9.848;2023-02-15T09:08:55;8.82;;;8.13;;
40501;SDS011;29631;49.168;9.848;2023-02-15T09:11:22;8.10;;;7.40;;
40501;SDS011;29631;49.168;9.848;2023-02-15T09:13:58;8.52;;;7.93;;
40501;SDS011;29631;49.168;9.848;2023-02-15T09:16:28;8.00;;;7.30;;
40501;SDS011;29631;49.168;9.848;2023-02-15T09:18:57;8.52;;;7.82;;
40501;SDS011;29631;49.168;9.848;2023-02-15T09:21:23;7.90;;;7.30;;
40501;SDS011;29631;49.168;9.848;2023-02-15T09:23:51;8.68;;;7.97;;
40501;SDS011;29631;49.168;9.848;2023-02-15T09:26:28;8.40;;;7.70;;
40501;SDS011;29631;49.168;9.848;2023-02-15T09:28:57;7.68;;;7.07;;
40501;SDS011;29631;49.168;9.848;2023-02-15T09:31:32;8.75;;;8.05;;
40501;SDS011;29631;49.168;9.848;2023-02-15T09:34:03;8.07;;;7.43;;
40501;SDS011;29631;49.168;9.848;2023-02-15T09:36:33;8.48;;;7.78;;
40501;SDS011;29631;49.168;9.848;2023-02-15T09:39:11;8.77;;;8.02;;
40501;SDS011;29631;49.168;9.848;2023-02-15T09:41:52;8.88;;;7.97;;
40501;SDS011;29631;49.168;9.848;2023-02-15T09:48:05;7.72;;;7.13;;
40501;SDS011;29631;49.168;9.848;2023-02-15T09:51:02;7.85;;;7.25;;
40501;SDS011;29631;49.168;9.848;2023-02-15T10:17:37;7.80;;;7.22;;
40501;SDS011;29631;49.168;9.848;2023-02-15T10:26:20;7.78;;;7.28;;
40501;SDS011;29631;49.168;9.848;2023-02-15T10:32:05;7.93;;;7.32;;
40501;SDS011;29631;49.168;9.848;2023-02-15T10:35:20;7.60;;;7.10;;
40501;SDS011;29631;49.168;9.848;2023-02-15T10:47:11;7.35;;;6.85;;
40501;SDS011;29631;49.168;9.848;2023-02-15T11:07:20;8.15;;;7.55;;
40501;SDS011;29631;49.168;9.848;2023-02-15T11:13:04;7.75;;;7.20;;
40501;SDS011;29631;49.168;9.848;2023-02-15T11:15:43;8.38;;;7.72;;
40501;SDS011;29631;49.168;9.848;2023-02-15T11:18:25;8.20;;;7.50;;
40501;SDS011;29631;49.168;9.848;2023-02-15T11:23:35;8.73;;;8.02;;
40501;SDS011;29631;49.168;9.848;2023-02-15T11:26:10;8.43;;;7.82;;
40501;SDS011;29631;49.168;9.848;2023-02-15T11:31:49;8.48;;;7.72;;
40501;SDS011;29631;49.168;9.848;2023-02-15T11:34:20;8.77;;;8.07;;
40501;SDS011;29631;49.168;9.848;2023-02-15T11:37:00;8.77;;;8.07;;
40501;SDS011;29631;49.168;9.848;2023-02-15T11:39:33;8.45;;;7.80;;
40501;SDS011;29631;49.168;9.848;2023-02-15T11:42:01;8.30;;;7.65;;
40501;SDS011;29631;49.168;9.848;2023-02-15T11:44:39;8.48;;;7.78;;
40501;SDS011;29631;49.168;9.848;2023-02-15T11:47:13;8.38;;;7.68;;
40501;SDS011;29631;49.168;9.848;2023-02-15T11:49:39;8.88;;;8.18;;
40501;SDS011;29631;49.168;9.848;2023-02-15T11:52:06;8.32;;;7.72;;
40501;SDS011;29631;49.168;9.848;2023-02-15T11:54:39;8.55;;;7.85;;
40501;SDS011;29631;49.168;9.848;2023-02-15T11:57:18;8.75;;;8.05;;
40501;SDS011;29631;49.168;9.848;2023-02-15T12:00:09;8.85;;;8.15;;
40501;SDS011;29631;49.168;9.848;2023-02-15T12:02:40;8.25;;;7.65;;
40501;SDS011;29631;49.168;9.848;2023-02-15T12:05:13;8.55;;;7.82;;
40501;SDS011;29631;49.168;9.848;2023-02-15T12:07:45;8.98;;;8.27;;
40501;SDS011;29631;49.168;9.848;2023-02-15T12:19:24;8.68;;;7.97;;
40501;SDS011;29631;49.168;9.848;2023-02-15T12:22:10;8.95;;;7.93;;
40501;SDS011;29631;49.168;9.848;2023-02-15T12:25:00;8.13;;;7.50;;
40501;SDS011;29631;49.168;9.848;2023-02-15T12:27:44;9.05;;;8.25;;
40501;SDS011;29631;49.168;9.848;2023-02-15T12:30:19;8.70;;;8.00;;
40501;SDS011;29631;49.168;9.848;2023-02-15T12:32:58;8.10;;;7.47;;
40501;SDS011;29631;49.168;9.848;2023-02-15T12:35:42;8.55;;;7.75;;
40501;SDS011;29631;49.168;9.848;2023-02-15T12:40:34;8.77;;;8.07;;
40501;SDS011;29631;49.168;9.848;2023-02-15T12:43:02;8.98;;;8.27;;
40501;SDS011;29631;49.168;9.848;2023-02-15T12:45:34;8.70;;;8.00;;
40501;SDS011;29631;49.168;9.848;2023-02-15T12:50:46;8.55;;;7.88;;
40501;SDS011;29631;49.168;9.848;2023-02-15T12:53:17;8.15;;;7.43;;
40501;SDS011;29631;49.168;9.848;2023-02-15T12:56:00;8.15;;;7.45;;
40501;SDS011;29631;49.168;9.848;2023-02-15T12:58:38;8.82;;;8.07;;
40501;SDS011;29631;49.168;9.848;2023-02-15T13:03:40;8.45;;;7.78;;
40501;SDS011;29631;49.168;9.848;2023-02-15T13:06:31;8.65;;;7.97;;
40501;SDS011;29631;49.168;9.848;2023-02-15T13:09:24;9.15;;;8.35;;
40501;SDS011;29631;49.168;9.848;2023-02-15T13:14:45;8.60;;;7.88;;
40501;SDS011;29631;49.168;9.848;2023-02-15T13:17:16;8.63;;;7.93;;
40501;SDS011;29631;49.168;9.848;2023-02-15T13:19:52;8.90;;;8.00;;
40501;SDS011;29631;49.168;9.848;2023-02-15T13:22:20;9.25;;;8.45;;
40501;SDS011;29631;49.168;9.848;2023-02-15T13:25:10;9.63;;;8.82;;
40501;SDS011;29631;49.168;9.848;2023-02-15T13:27:43;9.32;;;8.45;;
40501;SDS011;29631;49.168;9.848;2023-02-15T13:30:18;9.48;;;8.57;;
40501;SDS011;29631;49.168;9.848;2023-02-15T13:32:46;8.68;;;7.97;;
40501;SDS011;29631;49.168;9.848;2023-02-15T13:35:16;8.45;;;7.65;;
40501;SDS011;29631;49.168;9.848;2023-02-15T14:01:10;21.98;;;17.48;;
40501;SDS011;29631;49.168;9.848;2023-02-15T14:03:59;12.07;;;10.85;;
40501;SDS011;29631;49.168;9.848;2023-02-15T14:06:53;9.45;;;8.55;;
40501;SDS011;29631;49.168;9.848;2023-02-15T14:10:09;10.68;;;9.38;;
40501;SDS011;29631;49.168;9.848;2023-02-15T14:15:38;8.60;;;7.80;;
40501;SDS011;29631;49.168;9.848;2023-02-15T14:18:23;7.90;;;7.30;;
40501;SDS011;29631;49.168;9.848;2023-02-15T14:26:36;7.72;;;7.13;;
40501;SDS011;29631;49.168;9.848;2023-02-15T14:29:28;6.97;;;6.30;;
40501;SDS011;29631;49.168;9.848;2023-02-15T14:32:33;7.05;;;6.45;;
40501;SDS011;29631;49.168;9.848;2023-02-15T14:35:26;13.40;;;10.55;;
40501;SDS011;29631;49.168;9.848;2023-02-15T14:37:58;15.20;;;13.60;;
40501;SDS011;29631;49.168;9.848;2023-02-15T14:40:57;10.68;;;9.63;;
40501;SDS011;29631;49.168;9.848;2023-02-15T14:46:25;8.57;;;7.68;;
40501;SDS011;29631;49.168;9.848;2023-02-15T14:49:17;9.05;;;8.15;;
40501;SDS011;29631;49.168;9.848;2023-02-15T14:51:56;8.48;;;7.68;;
40501;SDS011;29631;49.168;9.848;2023-02-15T15:05:21;7.32;;;6.63;;
40501;SDS011;29631;49.168;9.848;2023-02-15T15:07:59;8.23;;;7.53;;
40501;SDS011;29631;49.168;9.848;2023-02-15T15:13:35;8.07;;;7.28;;
40501;SDS011;29631;49.168;9.848;2023-02-15T15:15:55;8.90;;;8.02;;
40501;SDS011;29631;49.168;9.848;2023-02-15T15:18:48;12.10;;;10.82;;
40501;SDS011;29631;49.168;9.848;2023-02-15T15:35:36;8.07;;;7.20;;
40501;SDS011;29631;49.168;9.848;2023-02-15T15:50:13;8.23;;;7.43;;
40501;SDS011;29631;49.168;9.848;2023-02-15T15:52:44;7.78;;;7.07;;
40501;SDS011;29631;49.168;9.848;2023-02-15T15:55:16;8.07;;;7.38;;
40501;SDS011;29631;49.168;9.848;2023-02-15T15:57:47;7.70;;;6.72;;
40501;SDS011;29631;49.168;9.848;2023-02-15T16:03:15;7.38;;;6.65;;
40501;SDS011;29631;49.168;9.848;2023-02-15T16:05:47;7.47;;;6.65;;
40501;SDS011;29631;49.168;9.848;2023-02-15T16:08:25;6.72;;;6.13;;
40501;SDS011;29631;49.168;9.848;2023-02-15T16:10:52;6.78;;;6.18;;
40501;SDS011;29631;49.168;9.848;2023-02-15T16:13:18;6.38;;;5.78;;
40501;SDS011;29631;49.168;9.848;2023-02-15T16:15:44;6.28;;;5.78;;
40501;SDS011;29631;49.168;9.848;2023-02-15T16:18:17;7.53;;;6.70;;
40501;SDS011;29631;49.168;9.848;2023-02-15T16:20:51;7.97;;;6.20;;
40501;SDS011;29631;49.168;9.848;2023-02-15T16:29:15;7.80;;;7.10;;
40501;SDS011;29631;49.168;9.848;2023-02-15T16:31:43;10.38;;;7.03;;
40501;SDS011;29631;49.168;9.848;2023-02-15T16:34:25;7.40;;;6.80;;
40501;SDS011;29631;49.168;9.848;2023-02-15T16:37:11;8.27;;;7.35;;
40501;SDS011;29631;49.168;9.848;2023-02-15T16:39:40;7.40;;;6.80;;
40501;SDS011;29631;49.168;9.848;2023-02-15T16:42:07;7.22;;;6.47;;
40501;SDS011;29631;49.168;9.848;2023-02-15T16:44:35;7.22;;;6.55;;
40501;SDS011;29631;49.168;9.848;2023-02-15T16:47:01;9.82;;;7.60;;
40501;SDS011;29631;49.168;9.848;2023-02-15T16:49:28;8.57;;;7.25;;
40501;SDS011;29631;49.168;9.848;2023-02-15T16:51:59;7.22;;;6.63;;
40501;SDS011;29631;49.168;9.848;2023-02-15T16:54:31;7.32;;;6.65;;
40501;SDS011;29631;49.168;9.848;2023-02-15T16:56:58;7.70;;;7.15;;
40501;SDS011;29631;49.168;9.848;2023-02-15T16:59:35;7.78;;;7.00;;
40501;SDS011;29631;49.168;9.848;2023-02-15T17:02:18;7.65;;;7.05;;
40501;SDS011;29631;49.168;9.848;2023-02-15T17:07:40;8.25;;;7.45;;
40501;SDS011;29631;49.168;9.848;2023-02-15T17:13:09;7.93;;;7.32;;
40501;SDS011;29631;49.168;9.848;2023-02-15T17:15:44;7.43;;;6.93;;
40501;SDS011;29631;49.168;9.848;2023-02-15T17:18:23;8.00;;;7.40;;
40501;SDS011;29631;49.168;9.848;2023-02-15T17:20:54;8.02;;;7.22;;
40501;SDS011;29631;49.168;9.848;2023-02-15T17:26:02;8.52;;;7.93;;
40501;SDS011;29631;49.168;9.848;2023-02-15T17:29:09;7.78;;;7.18;;
40501;SDS011;29631;49.168;9.848;2023-02-15T17:31:53;7.50;;;6.90;;
40501;SDS011;29631;49.168;9.848;2023-02-15T17:34:41;8.02;;;7.30;;
40501;SDS011;29631;49.168;9.848;2023-02-15T17:40:07;8.02;;;7.43;;
40501;SDS011;29631;49.168;9.848;2023-02-15T17:43:00;8.57;;;7.13;;
40501;SDS011;29631;49.168;9.848;2023-02-15T17:45:36;9.23;;;8.38;;
40501;SDS011;29631;49.168;9.848;2023-02-15T17:48:11;7.70;;;7.10;;
40501;SDS011;29631;49.168;9.848;2023-02-15T17:51:04;7.22;;;6.63;;
40501;SDS011;29631;49.168;9.848;2023-02-15T17:53:36;7.53;;;6.93;;
40501;SDS011;29631;49.168;9.848;2023-02-15T17:56:02;8.00;;;7.40;;
40501;SDS011;29631;49.168;9.848;2023-02-15T17:58:34;7.60;;;7.00;;
40501;SDS011;29631;49.168;9.848;2023-02-15T18:01:03;8.30;;;7.70;;
40501;SDS011;29631;49.168;9.848;2023-02-15T18:04:00;7.93;;;7.32;;
40501;SDS011;29631;49.168;9.848;2023-02-15T18:06:45;7.72;;;7.13;;
40501;SDS011;29631;49.168;9.848;2023-02-15T18:09:29;7.70;;;7.10;;
40501;SDS011;29631;49.168;9.848;2023-02-15T18:12:24;7.93;;;7.22;;
40501;SDS011;29631;49.168;9.848;2023-02-15T18:14:56;7.75;;;7.15;;
40501;SDS011;29631;49.168;9.848;2023-02-15T18:17:33;7.57;;;6.97;;
40501;SDS011;29631;49.168;9.848;2023-02-15T18:20:03;8.60;;;7.90;;
40501;SDS011;29631;49.168;9.848;2023-02-15T18:22:44;7.80;;;7.20;;
40501;SDS011;29631;49.168;9.848;2023-02-15T18:25:14;8.00;;;7.40;;
40501;SDS011;29631;49.168;9.848;2023-02-15T18:27:43;7.78;;;7.18;;
40501;SDS011;29631;49.168;9.848;2023-02-15T18:30:19;7.65;;;7.05;;
40501;SDS011;29631;49.168;9.848;2023-02-15T18:32:47;8.23;;;7.55;;
40501;SDS011;29631;49.168;9.848;2023-02-15T18:35:20;8.32;;;7.68;;
40501;SDS011;29631;49.168;9.848;2023-02-15T18:37:48;8.30;;;7.65;;
40501;SDS011;29631;49.168;9.848;2023-02-15T18:40:24;7.55;;;7.00;;
40501;SDS011;29631;49.168;9.848;2023-02-15T18:42:52;7.88;;;7.20;;
40501;SDS011;29631;49.168;9.848;2023-02-15T18:45:24;8.35;;;7.68;;
40501;SDS011;29631;49.168;9.848;2023-02-15T18:47:56;8.55;;;7.78;;
40501;SDS011;29631;49.168;9.848;2023-02-15T18:50:22;8.18;;;7.55;;
40501;SDS011;29631;49.168;9.848;2023-02-15T18:52:56;7.93;;;7.28;;
40501;SDS011;29631;49.168;9.848;2023-02-15T18:55:23;7.95;;;7.35;;
40501;SDS011;29631;49.168;9.848;2023-02-15T18:57:52;8.15;;;7.05;;
40501;SDS011;29631;49.168;9.848;2023-02-15T19:00:23;7.95;;;7.35;;
40501;SDS011;29631;49.168;9.848;2023-02-15T19:02:58;8.20;;;7.40;;
40501;SDS011;29631;49.168;9.848;2023-02-15T19:05:26;7.75;;;7.05;;
40501;SDS011;29631;49.168;9.848;2023-02-15T19:07:54;7.35;;;6.75;;
40501;SDS011;29631;49.168;9.848;2023-02-15T19:10:22;7.90;;;7.30;;
40501;SDS011;29631;49.168;9.848;2023-02-15T19:12:50;7.63;;;7.03;;
40501;SDS011;29631;49.168;9.848;2023-02-15T19:15:18;8.07;;;7.47;;
40501;SDS011;29631;49.168;9.848;2023-02-15T19:17:47;7.50;;;6.90;;